Time;durP1;ratioP1;P1;durP2;ratioP2;P2;SDS_P1;SDS_P2;PMS_P1;PMS_P2;Temp;Humidity;BMP_temperature;BMP_pressure;BME280_temperature;BME280_humidity;BME280_pressure;Samples;Min_cycle;Max_cycle;Signal;HPM_P1;HPM_P2
2022/07/05 00:01:09;;;;;;;6.60;5.90;;;;;;;21.51;63.38;100469.36;106071;1272;22538;-81
2022/07/05 00:03:35;;;;;;;7.40;6.20;;;;;;;21.49;63.57;100471.67;106105;1273;24306;-80
2022/07/05 00:06:02;;;;;;;7.10;5.50;;;;;;;21.47;63.64;100473.39;106232;1271;22547;-80
2022/07/05 00:08:28;;;;;;;6.00;5.50;;;;;;;21.46;63.66;100471.99;106339;1271;22857;-80
2022/07/05 00:10:54;;;;;;;7.60;5.60;;;;;;;21.45;63.75;100470.80;106185;1272;22538;-79
2022/07/05 00:13:20;;;;;;;6.20;5.70;;;;;;;21.43;63.88;100471.09;106042;1273;22556;-78
2022/07/05 00:15:46;;;;;;;6.20;5.60;;;;;;;21.41;63.84;100462.95;106498;1271;22707;-78
2022/07/05 00:18:12;;;;;;;6.40;5.80;;;;;;;21.40;63.95;100463.17;106673;1271;22581;-77
2022/07/05 00:20:39;;;;;;;6.20;5.60;;;;;;;21.37;63.93;100460.66;106446;1271;25639;-79
2022/07/05 00:23:05;;;;;;;7.30;5.30;;;;;;;21.36;63.91;100459.62;106313;1271;22540;-74
2022/07/05 00:25:31;;;;;;;6.70;5.40;;;;;;;21.34;63.94;100460.66;106180;1271;25631;-76
2022/07/05 00:27:57;;;;;;;6.60;5.10;;;;;;;21.29;63.72;100458.54;106189;1271;24334;-79
2022/07/05 00:30:24;;;;;;;5.30;4.80;;;;;;;21.26;63.93;100457.27;106046;1274;22724;-81
2022/07/05 00:32:50;;;;;;;5.30;4.80;;;;;;;21.22;63.76;100458.18;106074;1273;25405;-79
2022/07/05 00:35:16;;;;;;;5.30;4.80;;;;;;;21.17;63.96;100457.25;106170;1273;22794;-80
2022/07/05 00:37:42;;;;;;;8.90;4.40;;;;;;;21.12;63.89;100456.57;106219;1273;22717;-79
2022/07/05 00:40:09;;;;;;;5.00;4.10;;;;;;;21.10;63.99;100459.21;106236;1273;25457;-80
2022/07/05 00:42:35;;;;;;;4.70;4.30;;;;;;;21.09;63.93;100462.27;106153;1273;23352;-78
2022/07/05 00:45:06;;;;;;;4.40;4.10;;;;;;;21.08;63.93;100463.80;106227;1274;25382;-78
2022/07/05 00:47:32;;;;;;;4.90;4.50;;;;;;;21.04;63.81;100467.73;107001;1274;22476;-77
2022/07/05 00:49:58;;;;;;;5.70;4.70;;;;;;;21.01;63.87;100475.93;107433;1273;22624;-78
2022/07/05 00:52:25;;;;;;;5.10;4.60;;;;;;;21.03;63.96;100487.48;108294;1271;23033;-77
2022/07/05 00:54:51;;;;;;;4.80;4.40;;;;;;;21.04;63.93;100493.17;108836;1273;22571;-79
2022/07/05 00:57:22;;;;;;;5.80;4.70;;;;;;;21.04;63.83;100492.97;108963;1273;22620;-77
2022/07/05 00:59:50;;;;;;;6.10;4.80;;;;;;;21.02;63.84;100497.23;109144;1273;22882;-77
2022/07/05 01:02:19;;;;;;;5.00;4.60;;;;;;;20.95;63.96;100498.10;109088;1273;22539;-77
2022/07/05 01:04:48;;;;;;;4.80;4.40;;;;;;;20.98;64.02;100503.31;107182;1275;22570;-74
2022/07/05 01:07:15;;;;;;;5.90;4.10;;;;;;;20.97;64.08;100500.48;106442;1273;22569;-79
2022/07/05 01:09:41;;;;;;;6.00;4.70;;;;;;;21.00;64.23;100503.40;106139;1273;23197;-76
2022/07/05 01:12:08;;;;;;;8.70;4.80;;;;;;;21.01;64.25;100497.75;106155;1273;22694;-78
2022/07/05 01:14:35;;;;;;;5.80;5.20;;;;;;;20.98;64.20;100495.62;106012;1274;22535;-79
2022/07/05 01:17:01;;;;;;;5.30;4.70;;;;;;;20.97;64.27;100499.77;106078;1274;23742;-79
2022/07/05 01:19:27;;;;;;;5.50;5.00;;;;;;;20.96;64.36;100504.86;106183;1273;22554;-78
2022/07/05 01:21:54;;;;;;;6.30;5.20;;;;;;;20.92;64.47;100511.85;105623;1277;25274;-79
2022/07/05 01:24:21;;;;;;;5.70;5.10;;;;;;;20.90;64.35;100519.77;105874;1276;22625;-80
2022/07/05 01:26:49;;;;;;;6.10;5.50;;;;;;;20.87;64.45;100517.06;105869;1276;23944;-78
2022/07/05 01:29:16;;;;;;;6.90;5.30;;;;;;;20.81;64.62;100517.36;105851;1276;22720;-79
2022/07/05 01:31:43;;;;;;;7.10;4.90;;;;;;;20.75;64.63;100522.13;105959;1276;25235;-80
2022/07/05 01:34:10;;;;;;;5.10;4.60;;;;;;;20.71;64.77;100518.05;105728;1277;23944;-79
2022/07/05 01:36:37;;;;;;;5.00;4.60;;;;;;;20.67;64.75;100518.95;105808;1276;24222;-78
2022/07/05 01:39:06;;;;;;;5.90;5.00;;;;;;;20.64;64.80;100511.92;105950;1276;22699;-80
2022/07/05 01:41:33;;;;;;;6.40;4.80;;;;;;;20.61;64.90;100512.80;106141;1274;22587;-81
2022/07/05 01:44:00;;;;;;;5.10;4.60;;;;;;;20.59;65.12;100514.34;106159;1272;22544;-79
2022/07/05 01:46:32;;;;;;;5.70;5.20;;;;;;;20.58;65.13;100513.13;106307;1271;22536;-80
2022/07/05 01:49:03;;;;;;;5.60;5.10;;;;;;;20.55;65.15;100515.96;106106;1274;22582;-77
2022/07/05 01:51:34;;;;;;;5.60;4.70;;;;;;;20.49;65.19;100519.09;106063;1274;25380;-76
2022/07/05 01:54:01;;;;;;;6.40;5.20;;;;;;;20.43;65.36;100523.85;106096;1273;22575;-79
2022/07/05 01:56:27;;;;;;;6.70;5.00;;;;;;;20.38;65.31;100524.11;106171;1271;23146;-74
2022/07/05 01:58:56;;;;;;;5.40;4.90;;;;;;;20.34;65.47;100529.30;106278;1271;22610;-81
2022/07/05 02:01:37;;;;;;;7.00;4.80;;;;;;;20.27;65.48;100529.79;106282;1271;25328;-80
2022/07/05 02:04:07;;;;;;;6.30;4.30;;;;;;;20.21;65.71;100528.48;106110;1274;23988;-77
2022/07/05 02:06:34;;;;;;;5.50;5.00;;;;;;;20.17;65.77;100527.92;106204;1272;22539;-78
2022/07/05 02:09:04;;;;;;;5.10;4.70;;;;;;;20.13;65.93;100532.05;105495;1279;24073;-83
2022/07/05 02:11:31;;;;;;;5.10;4.60;;;;;;;20.13;66.15;100535.27;105526;1279;22748;-83
2022/07/05 02:13:58;;;;;;;5.60;4.80;;;;;;;20.12;66.14;100538.94;105490;1281;22571;-80
2022/07/05 02:16:25;;;;;;;5.80;5.20;;;;;;;20.09;66.32;100533.89;105675;1281;22838;-80
2022/07/05 02:18:52;;;;;;;6.90;4.80;;;;;;;20.03;66.27;100535.89;105604;1279;25343;-76
2022/07/05 02:21:19;;;;;;;7.10;5.00;;;;;;;20.00;66.43;100533.35;105398;1281;24323;-77
2022/07/05 02:23:46;;;;;;;5.50;5.00;;;;;;;19.98;66.61;100535.23;105622;1279;22586;-77
2022/07/05 02:26:13;;;;;;;5.90;4.70;;;;;;;19.97;66.66;100535.30;105449;1279;22568;-77
2022/07/05 02:28:40;;;;;;;5.70;4.40;;;;;;;19.97;66.79;100533.48;106143;1273;22549;-77
2022/07/05 02:31:07;;;;;;;4.80;4.40;;;;;;;19.98;66.75;100534.85;105844;1273;23940;-75
2022/07/05 02:33:33;;;;;;;4.60;4.10;;;;;;;20.00;66.75;100538.53;106132;1273;24766;-75
2022/07/05 02:36:25;;;;;;;5.80;4.60;;;;;;;19.99;66.72;100538.73;105706;1273;24269;-77
2022/07/05 02:38:51;;;;;;;6.80;4.30;;;;;;;20.00;66.77;100545.50;106117;1274;24319;-76
2022/07/05 02:41:18;;;;;;;5.80;4.70;;;;;;;20.00;66.71;100542.27;106037;1272;22564;-77
2022/07/05 02:43:46;;;;;;;5.70;5.00;;;;;;;20.00;66.76;100542.80;106283;1271;22569;-76
2022/07/05 02:46:13;;;;;;;4.30;4.00;;;;;;;20.00;66.73;100544.62;105705;1277;22777;-76
2022/07/05 02:48:40;;;;;;;5.30;3.80;;;;;;;19.98;66.78;100541.52;105732;1277;22573;-76
2022/07/05 02:51:06;;;;;;;4.40;3.90;;;;;;;19.97;66.75;100536.85;105580;1278;22561;-75
2022/07/05 02:53:34;;;;;;;4.50;4.10;;;;;;;19.95;66.78;100532.31;105499;1279;22663;-75
2022/07/05 02:56:02;;;;;;;7.60;4.10;;;;;;;20.01;66.69;100533.48;105455;1281;22569;-77
2022/07/05 02:58:29;;;;;;;4.60;4.20;;;;;;;20.03;66.63;100531.98;105616;1279;22567;-80
2022/07/05 03:00:57;;;;;;;5.20;4.30;;;;;;;19.99;66.54;100542.88;105579;1279;22582;-75
2022/07/05 03:03:24;;;;;;;4.80;4.10;;;;;;;19.99;66.58;100552.14;105485;1279;22549;-77
2022/07/05 03:05:51;;;;;;;4.60;3.80;;;;;;;19.98;66.47;100553.47;106145;1271;22535;-76
2022/07/05 03:08:18;;;;;;;4.20;3.80;;;;;;;19.96;66.47;100553.74;105973;1273;22557;-78
2022/07/05 03:10:44;;;;;;;7.50;4.60;;;;;;;19.94;66.56;100557.92;106027;1273;22558;-75
2022/07/05 03:13:10;;;;;;;4.30;3.30;;;;;;;19.95;66.67;100566.30;106015;1273;25274;-82
2022/07/05 03:15:37;;;;;;;7.50;3.70;;;;;;;19.99;66.59;100570.58;105884;1274;22576;-80
2022/07/05 03:18:03;;;;;;;4.40;3.60;;;;;;;19.98;66.54;100570.77;106136;1273;24434;-76
2022/07/05 03:20:30;;;;;;;3.60;3.20;;;;;;;20.00;66.39;100568.52;106315;1274;25427;-83
2022/07/05 03:22:57;;;;;;;4.50;3.50;;;;;;;20.02;66.31;100570.25;106638;1274;22558;-86
2022/07/05 03:25:28;;;;;;;3.70;3.40;;;;;;;20.04;66.35;100564.47;106174;1273;22541;-81
2022/07/05 03:27:56;;;;;;;3.60;3.30;;;;;;;20.07;66.06;100566.86;106258;1274;24563;-79
2022/07/05 03:30:22;;;;;;;4.70;3.40;;;;;;;20.08;66.10;100576.14;105979;1274;22718;-82
2022/07/05 03:32:49;;;;;;;4.40;3.30;;;;;;;20.07;65.88;100578.29;106034;1273;22728;-86
2022/07/05 03:35:16;;;;;;;3.80;3.50;;;;;;;20.07;65.78;100582.41;105778;1277;24253;-78
2022/07/05 03:37:42;;;;;;;5.40;3.30;;;;;;;20.05;65.71;100579.79;105818;1276;24380;-79
2022/07/05 03:40:09;;;;;;;3.80;3.30;;;;;;;20.04;65.67;100579.11;105893;1276;22835;-84
2022/07/05 03:42:37;;;;;;;4.30;3.30;;;;;;;20.06;65.62;100577.79;105851;1276;25270;-83
2022/07/05 03:45:03;;;;;;;5.70;2.90;;;;;;;20.05;65.16;100576.41;106056;1276;22567;-81
2022/07/05 03:47:30;;;;;;;3.50;2.60;;;;;;;20.06;65.26;100566.52;106675;1276;24452;-78
2022/07/05 03:49:57;;;;;;;2.80;2.60;;;;;;;20.11;65.19;100562.92;106771;1276;22563;-80
2022/07/05 03:52:23;;;;;;;3.50;2.80;;;;;;;20.17;65.01;100565.52;106414;1276;25432;-76
2022/07/05 03:54:53;;;;;;;3.20;2.70;;;;;;;20.20;64.81;100567.70;106678;1273;25280;-76
2022/07/05 03:57:20;;;;;;;4.20;3.20;;;;;;;20.22;64.51;100567.39;106638;1271;22559;-76
2022/07/05 03:59:46;;;;;;;6.50;3.00;;;;;;;20.20;64.14;100568.04;106612;1272;22549;-79
2022/07/05 04:02:13;;;;;;;2.70;2.50;;;;;;;20.18;64.01;100576.36;106549;1274;24610;-80
2022/07/05 04:04:40;;;;;;;4.10;2.90;;;;;;;20.16;63.75;100576.23;107083;1271;22605;-79
2022/07/05 04:07:07;;;;;;;3.50;2.60;;;;;;;20.15;63.58;100577.73;107178;1274;24477;-78
2022/07/05 04:09:34;;;;;;;3.30;2.40;;;;;;;20.15;63.58;100579.54;106802;1272;25294;-78
2022/07/05 04:12:00;;;;;;;4.00;2.70;;;;;;;20.17;63.37;100579.10;106526;1271;25312;-80
2022/07/05 04:14:29;;;;;;;4.70;2.40;;;;;;;20.14;63.01;100582.42;106503;1272;22552;-76
2022/07/05 04:16:55;;;;;;;4.50;3.20;;;;;;;20.09;62.78;100580.52;106282;1271;23016;-79
2022/07/05 04:19:23;;;;;;;2.80;2.60;;;;;;;20.04;62.85;100581.25;106284;1271;25444;-78
2022/07/05 04:21:50;;;;;;;4.00;3.00;;;;;;;20.05;63.05;100587.31;106198;1271;339479;-83
2022/07/05 04:24:16;;;;;;;2.70;2.40;;;;;;;20.00;62.96;100582.67;106316;1271;22548;-85
2022/07/05 04:26:42;;;;;;;3.70;3.00;;;;;;;19.99;62.95;100587.91;107208;1273;22741;-76
2022/07/05 04:29:09;;;;;;;5.00;3.10;;;;;;;19.97;63.02;100585.86;106215;1273;22644;-77
2022/07/05 04:31:36;;;;;;;7.20;3.50;;;;;;;19.99;62.90;100591.86;106288;1271;25275;-80
2022/07/05 04:34:03;;;;;;;7.60;3.00;;;;;;;20.00;63.05;100588.02;106195;1273;25324;-79
2022/07/05 04:36:31;;;;;;;3.80;2.40;;;;;;;20.03;62.95;100586.34;107519;1271;22562;-82
2022/07/05 04:38:58;;;;;;;4.10;3.00;;;;;;;20.06;62.77;100584.94;107623;1271;25271;-78
2022/07/05 04:41:25;;;;;;;3.40;2.70;;;;;;;20.09;62.77;100582.70;106492;1271;24893;-82
2022/07/05 04:43:52;;;;;;;3.20;2.50;;;;;;;20.13;62.75;100579.30;106110;1275;22545;-82
2022/07/05 04:46:18;;;;;;;3.70;2.40;;;;;;;20.17;62.66;100580.31;106698;1271;22566;-84
2022/07/05 04:48:46;;;;;;;6.00;2.50;;;;;;;20.22;62.58;100578.86;106551;1273;22579;-86
2022/07/05 04:51:14;;;;;;;5.30;2.80;;;;;;;20.21;62.30;100581.21;106787;1272;22625;-80
2022/07/05 04:53:41;;;;;;;3.60;2.50;;;;;;;20.22;62.11;100582.06;106533;1272;24320;-82
2022/07/05 04:56:07;;;;;;;3.10;2.30;;;;;;;20.26;62.13;100583.48;106325;1273;22528;-80
2022/07/05 04:58:34;;;;;;;4.50;2.60;;;;;;;20.31;62.05;100581.48;106725;1273;25393;-83
2022/07/05 05:01:00;;;;;;;4.50;2.30;;;;;;;20.37;61.99;100587.47;106798;1273;25275;-81
2022/07/05 05:03:27;;;;;;;6.00;2.70;;;;;;;20.41;61.95;100590.13;106238;1273;22535;-82
2022/07/05 05:05:53;;;;;;;4.00;3.30;;;;;;;20.45;61.74;100590.66;106032;1272;22868;-83
2022/07/05 05:08:19;;;;;;;3.10;2.50;;;;;;;20.47;61.43;100592.54;105975;1273;22542;-81
2022/07/05 05:10:45;;;;;;;7.00;2.90;;;;;;;20.50;61.28;100595.97;105947;1279;25546;-85
2022/07/05 05:13:12;;;;;;;5.40;2.70;;;;;;;20.51;61.17;100593.04;105862;1279;22591;-82
2022/07/05 05:15:38;;;;;;;2.50;2.10;;;;;;;20.53;61.24;100594.36;105669;1280;24224;-85
2022/07/05 05:18:04;;;;;;;4.80;2.80;;;;;;;20.55;61.21;100591.64;105675;1279;25388;-79
2022/07/05 05:20:31;;;;;;;7.80;4.30;;;;;;;20.56;60.91;100591.75;105795;1279;26530;-80
2022/07/05 05:22:57;;;;;;;3.70;2.40;;;;;;;20.64;60.94;100599.05;106849;1279;22508;-79
2022/07/05 05:25:23;;;;;;;3.10;2.80;;;;;;;20.71;61.00;100601.43;106237;1279;24368;-81
2022/07/05 05:27:50;;;;;;;5.50;2.80;;;;;;;20.77;60.64;100603.11;105611;1279;24284;-85
2022/07/05 05:30:17;;;;;;;3.90;2.60;;;;;;;20.81;60.28;100600.59;105617;1279;25373;-80
2022/07/05 05:32:44;;;;;;;4.70;2.60;;;;;;;20.84;60.20;100602.27;105670;1279;23182;-81
2022/07/05 05:35:10;;;;;;;5.40;2.50;;;;;;;20.87;60.08;100604.61;105819;1274;25266;-80
2022/07/05 05:37:50;;;;;;;2.50;2.00;;;;;;;20.89;59.89;100607.35;105810;1274;23125;-82
2022/07/05 05:40:17;;;;;;;6.80;2.60;;;;;;;20.92;59.94;100612.25;106320;1273;25383;-74
2022/07/05 05:42:43;;;;;;;5.50;2.80;;;;;;;20.99;59.62;100614.06;106309;1271;24243;-81
2022/07/05 05:45:10;;;;;;;4.70;2.50;;;;;;;21.04;59.34;100614.91;106648;1274;22639;-82
2022/07/05 05:47:48;;;;;;;3.20;2.20;;;;;;;21.08;59.37;100612.22;106110;1272;23356;-78
2022/07/05 05:50:21;;;;;;;4.90;2.70;;;;;;;21.12;59.28;100605.00;106199;1271;25267;-84
2022/07/05 05:52:49;;;;;;;4.00;3.30;;;;;;;21.19;58.93;100601.27;105994;1274;24233;-79
2022/07/05 05:55:15;;;;;;;5.30;2.80;;;;;;;21.26;58.88;100589.46;106226;1271;22551;-79
2022/07/05 05:57:42;;;;;;;2.70;2.20;;;;;;;21.32;58.63;100594.52;105669;1279;25377;-79
2022/07/05 06:00:10;;;;;;;3.10;2.50;;;;;;;21.36;58.41;100592.02;105848;1276;24469;-80
2022/07/05 06:02:40;;;;;;;3.90;2.60;;;;;;;21.38;58.50;100591.02;105704;1279;25401;-86
2022/07/05 06:05:07;;;;;;;5.00;2.50;;;;;;;21.41;58.44;100587.98;105790;1280;22564;-78
2022/07/05 06:07:55;;;;;;;8.50;2.60;;;;;;;21.42;58.39;100586.84;105863;1278;23513;-80
2022/07/05 06:10:21;;;;;;;4.30;2.40;;;;;;;21.40;58.23;100584.80;106066;1279;25925;-82
2022/07/05 06:12:48;;;;;;;4.70;2.30;;;;;;;21.39;58.26;100588.83;106293;1279;23549;-81
2022/07/05 06:15:15;;;;;;;9.70;2.80;;;;;;;21.32;58.18;100589.50;106581;1273;22577;-82
2022/07/05 06:17:41;;;;;;;4.40;2.50;;;;;;;21.29;58.26;100593.94;106068;1275;22849;-83
2022/07/05 06:20:13;;;;;;;11.40;3.50;;;;;;;21.28;58.56;100590.24;106306;1273;26603;-81
2022/07/05 06:22:40;;;;;;;6.00;3.00;;;;;;;21.27;58.38;100590.85;107241;1273;22538;-81
2022/07/05 06:25:08;;;;;;;4.00;2.60;;;;;;;21.28;58.35;100586.49;108824;1274;22545;-82
2022/07/05 06:27:54;;;;;;;4.20;2.80;;;;;;;21.26;58.36;100579.73;108923;1273;22870;-81
2022/07/05 06:30:22;;;;;;;2.00;1.90;;;;;;;21.32;58.17;100584.16;108162;1276;22558;-82
2022/07/05 06:32:50;;;;;;;3.60;2.50;;;;;;;21.36;58.04;100588.77;107416;1276;26062;-80
2022/07/05 06:35:16;;;;;;;3.30;2.50;;;;;;;21.44;58.02;100588.73;107735;1276;24070;-82
2022/07/05 06:37:48;;;;;;;6.00;2.60;;;;;;;21.51;57.90;100589.60;108031;1276;25516;-83
2022/07/05 06:40:23;;;;;;;4.10;2.30;;;;;;;21.59;58.02;100587.04;106270;1276;24251;-82
2022/07/05 06:42:54;;;;;;;7.00;2.40;;;;;;;21.68;58.06;100580.83;106071;1276;25349;-81
2022/07/05 06:45:24;;;;;;;4.20;2.60;;;;;;;21.77;57.76;100576.83;105897;1279;22670;-82
2022/07/05 06:48:02;;;;;;;7.90;2.50;;;;;;;21.84;57.54;100579.70;105956;1277;25537;-82
2022/07/05 06:50:31;;;;;;;14.60;2.60;;;;;;;21.85;57.52;100580.86;106096;1276;22673;-82
2022/07/05 06:52:58;;;;;;;7.40;2.60;;;;;;;21.93;57.56;100580.46;105766;1276;26304;-83
2022/07/05 06:55:25;;;;;;;5.80;2.60;;;;;;;22.04;57.39;100589.55;105999;1274;24751;-82
2022/07/05 06:58:03;;;;;;;5.00;3.10;;;;;;;22.12;57.09;100593.98;106203;1273;25451;-81
2022/07/05 07:00:39;;;;;;;4.20;2.60;;;;;;;22.24;57.33;100596.71;106036;1273;26666;-83
2022/07/05 07:03:25;;;;;;;5.00;2.10;;;;;;;22.36;56.66;100600.76;106155;1273;22723;-85
2022/07/05 07:06:11;;;;;;;6.30;2.70;;;;;;;22.47;56.94;100599.40;106021;1276;24050;-83
2022/07/05 07:11:22;;;;;;;5.30;2.10;;;;;;;22.59;56.02;100607.57;106235;1273;26587;-83
2022/07/05 07:13:48;;;;;;;8.30;2.20;;;;;;;22.63;56.02;100608.47;106245;1274;24468;-82
2022/07/05 07:16:14;;;;;;;4.20;2.30;;;;;;;22.68;55.86;100608.34;106209;1273;22615;-82
2022/07/05 07:18:41;;;;;;;5.80;2.20;;;;;;;22.75;55.81;100613.34;106250;1273;24175;-84
2022/07/05 07:21:27;;;;;;;5.30;2.50;;;;;;;22.84;55.70;100611.02;106343;1274;22748;-83
2022/07/05 07:23:53;;;;;;;5.50;2.50;;;;;;;22.92;55.41;100611.84;106417;1275;23092;-83
2022/07/05 07:26:19;;;;;;;10.90;2.40;;;;;;;22.97;54.90;100617.48;106601;1274;22666;-83
2022/07/05 07:28:45;;;;;;;6.10;2.30;;;;;;;22.91;54.80;100612.44;106079;1275;22572;-81
2022/07/05 07:31:12;;;;;;;8.20;2.00;;;;;;;22.94;54.96;100614.44;106022;1274;24238;-83
2022/07/05 07:33:38;;;;;;;5.40;2.40;;;;;;;22.95;54.81;100608.26;105695;1279;23239;-81
2022/07/05 07:36:12;;;;;;;5.20;2.20;;;;;;;23.01;54.66;100608.80;105714;1281;22499;-80
2022/07/05 07:38:42;;;;;;;8.30;2.50;;;;;;;23.08;54.93;100606.79;105663;1279;22546;-81
2022/07/05 07:41:08;;;;;;;3.10;1.90;;;;;;;23.14;54.99;100604.30;105705;1279;23053;-82
2022/07/05 07:43:34;;;;;;;6.30;2.60;;;;;;;23.20;54.79;100601.98;107667;1279;22659;-82
2022/07/05 07:46:00;;;;;;;5.10;2.10;;;;;;;23.26;54.04;100599.81;108143;1279;22494;-82
2022/07/05 07:48:28;;;;;;;5.00;2.60;;;;;;;23.33;53.96;100604.82;106257;1279;23901;-85
2022/07/05 07:50:54;;;;;;;4.00;1.90;;;;;;;23.35;53.64;100601.11;105751;1279;25382;-82
2022/07/05 07:53:20;;;;;;;8.50;2.40;;;;;;;23.39;53.77;100600.00;105918;1277;22573;-82
2022/07/05 07:55:48;;;;;;;8.80;2.50;;;;;;;23.46;53.74;100593.60;106001;1273;25351;-82
2022/07/05 07:58:14;;;;;;;6.50;2.60;;;;;;;23.55;53.49;100594.00;106038;1273;22578;-83
2022/07/05 08:00:40;;;;;;;4.60;2.50;;;;;;;23.65;53.56;100596.80;105891;1273;25315;-82
2022/07/05 08:03:06;;;;;;;6.10;2.60;;;;;;;23.76;53.85;100598.50;106020;1273;22634;-83
2022/07/05 08:05:33;;;;;;;4.20;2.20;;;;;;;23.85;53.54;100598.46;105972;1274;22535;-82
2022/07/05 08:07:59;;;;;;;7.20;2.20;;;;;;;23.96;53.26;100599.41;105776;1276;22564;-82
2022/07/05 08:10:25;;;;;;;4.30;2.40;;;;;;;24.08;53.05;100596.34;105976;1273;25389;-81
2022/07/05 08:12:51;;;;;;;4.90;2.10;;;;;;;24.17;52.57;100593.66;105969;1274;25452;-82
2022/07/05 08:15:17;;;;;;;9.90;2.40;;;;;;;24.25;52.38;100589.58;106319;1274;22657;-83
2022/07/05 08:21:30;;;;;;;7.10;2.60;;;;;;;24.36;52.56;100589.73;106197;1274;22662;-85
2022/07/05 08:23:14;;;;;;;7.60;2.40;;;;;;;24.53;51.99;100590.13;106142;1274;22597;-84
2022/07/05 08:25:40;;;;;;;7.40;2.40;;;;;;;24.59;51.78;100592.27;106193;1274;25327;-84
2022/07/05 08:28:07;;;;;;;4.50;2.20;;;;;;;24.68;51.59;100592.04;106125;1273;25888;-84
2022/07/05 08:30:33;;;;;;;4.70;1.90;;;;;;;24.79;51.72;100590.97;106109;1274;25261;-83
2022/07/05 08:32:59;;;;;;;10.20;2.50;;;;;;;24.90;51.88;100588.66;106122;1274;25328;-85
2022/07/05 08:35:25;;;;;;;4.00;2.10;;;;;;;24.98;51.00;100589.73;106207;1274;25215;-84
2022/07/05 08:37:51;;;;;;;3.90;2.40;;;;;;;25.00;50.64;100591.08;106354;1274;24205;-83
2022/07/05 08:40:26;;;;;;;3.20;1.90;;;;;;;25.03;50.23;100593.05;106384;1279;22593;-83
2022/07/05 08:42:56;;;;;;;3.20;2.30;;;;;;;25.08;50.37;100592.15;106456;1281;22784;-82
2022/07/05 08:45:25;;;;;;;3.50;2.00;;;;;;;25.23;50.60;100595.83;106355;1279;22569;-83
2022/07/05 08:47:56;;;;;;;3.40;2.10;;;;;;;25.40;50.54;100591.65;106449;1279;24231;-82
2022/07/05 08:50:25;;;;;;;2.60;2.20;;;;;;;25.57;50.25;100589.40;106637;1279;22570;-84
2022/07/05 08:52:52;;;;;;;4.00;2.20;;;;;;;25.68;49.59;100588.47;106360;1279;24253;-83
2022/07/05 08:55:20;;;;;;;3.70;2.40;;;;;;;25.83;49.83;100587.59;105827;1279;22661;-84
2022/07/05 08:57:47;;;;;;;2.40;2.10;;;;;;;25.99;49.34;100584.34;106104;1273;23954;-84
2022/07/05 09:00:14;;;;;;;4.70;2.40;;;;;;;26.09;48.74;100581.11;106348;1272;25267;-85
2022/07/05 09:02:40;;;;;;;3.20;1.80;;;;;;;26.14;48.42;100579.34;106442;1274;24301;-84
2022/07/05 09:05:12;;;;;;;5.50;2.40;;;;;;;26.25;48.39;100581.63;106341;1275;22633;-83
2022/07/05 09:07:56;;;;;;;5.70;2.30;;;;;;;26.35;48.08;100582.73;106507;1274;22563;-83
2022/07/05 09:10:32;;;;;;;3.10;2.00;;;;;;;26.36;47.76;100574.14;106637;1273;24000;-83
2022/07/05 09:12:58;;;;;;;5.20;2.10;;;;;;;26.29;47.90;100583.30;106407;1274;22564;-84
2022/07/05 09:15:24;;;;;;;4.90;1.90;;;;;;;26.26;47.82;100585.86;106220;1274;25280;-83
2022/07/05 09:17:51;;;;;;;2.20;1.70;;;;;;;26.27;47.91;100586.35;106064;1273;22567;-83
2022/07/05 09:20:19;;;;;;;2.50;1.90;;;;;;;26.31;47.69;100591.13;105734;1279;22760;-85
2022/07/05 09:22:53;;;;;;;3.40;1.80;;;;;;;26.40;47.50;100595.70;105836;1279;23098;-86
2022/07/05 09:25:31;;;;;;;3.20;1.80;;;;;;;26.58;47.50;100593.70;105856;1279;22626;-87
2022/07/05 09:28:04;;;;;;;2.00;1.80;;;;;;;26.63;46.85;100592.08;104870;1285;25407;-86
2022/07/05 09:30:41;;;;;;;1.70;1.60;;;;;;;26.80;47.19;100593.02;104921;1288;26631;-87
2022/07/05 09:33:15;;;;;;;2.30;1.90;;;;;;;26.96;46.93;100590.17;105124;1287;22567;-83
2022/07/05 09:35:54;;;;;;;1.90;1.80;;;;;;;27.08;46.69;100590.20;105436;1286;22559;-84
2022/07/05 09:38:28;;;;;;;3.10;1.80;;;;;;;27.24;46.05;100584.72;105725;1284;24117;-83
2022/07/05 09:40:56;;;;;;;5.80;1.60;;;;;;;27.27;45.73;100586.65;106228;1282;24363;-83
2022/07/05 09:43:25;;;;;;;3.70;1.80;;;;;;;27.39;45.78;100582.09;105950;1282;22543;-83
2022/07/05 09:45:53;;;;;;;2.40;1.90;;;;;;;27.57;45.30;100574.91;105913;1282;24480;-84
2022/07/05 09:48:20;;;;;;;2.40;1.60;;;;;;;27.70;44.82;100577.19;106248;1285;22569;-84
2022/07/05 09:51:06;;;;;;;5.10;1.70;;;;;;;27.82;44.53;100574.30;106292;1284;26546;-83
2022/07/05 09:53:54;;;;;;;2.90;1.70;;;;;;;27.97;44.48;100571.96;106433;1278;22712;-84
2022/07/05 09:56:29;;;;;;;3.90;1.50;;;;;;;28.10;43.81;100565.58;106439;1274;24390;-85
2022/07/05 09:58:56;;;;;;;2.10;1.60;;;;;;;28.23;43.92;100567.75;106284;1276;22569;-85
2022/07/05 10:01:30;;;;;;;2.80;1.90;;;;;;;28.28;43.57;100564.06;106281;1274;22540;-83
2022/07/05 10:03:59;;;;;;;3.50;1.80;;;;;;;28.29;43.58;100566.94;106141;1276;22594;-84
2022/07/05 10:06:26;;;;;;;5.70;1.70;;;;;;;28.32;43.85;100573.22;106378;1273;24199;-85
2022/07/05 10:08:53;;;;;;;2.90;1.80;;;;;;;28.31;43.69;100571.13;106469;1274;22538;-83
2022/07/05 10:11:21;;;;;;;5.60;1.90;;;;;;;28.27;43.43;100570.70;106465;1274;22627;-83
2022/07/05 10:13:55;;;;;;;2.10;1.80;;;;;;;28.20;43.05;100567.98;106324;1274;22534;-84
2022/07/05 10:16:22;;;;;;;1.70;1.60;;;;;;;28.11;42.82;100574.50;106315;1274;24275;-84
2022/07/05 10:18:54;;;;;;;3.40;1.80;;;;;;;27.96;42.93;100568.81;106302;1274;25266;-84
2022/07/05 10:21:22;;;;;;;1.80;1.70;;;;;;;27.82;43.26;100571.37;105881;1280;24400;-84
2022/07/05 10:23:55;;;;;;;2.50;1.70;;;;;;;27.77;43.71;100575.57;105691;1281;24583;-84
2022/07/05 10:26:23;;;;;;;3.10;1.90;;;;;;;27.70;43.92;100573.59;105392;1284;24242;-83
2022/07/05 10:28:52;;;;;;;3.70;1.90;;;;;;;27.64;44.06;100576.38;105863;1280;22800;-83
2022/07/05 10:31:29;;;;;;;2.90;1.80;;;;;;;27.59;44.33;100578.55;105760;1279;25237;-83
2022/07/05 10:33:57;;;;;;;3.70;1.90;;;;;;;27.38;43.67;100578.94;105410;1282;22556;-84
2022/07/05 10:36:25;;;;;;;2.60;1.70;;;;;;;27.26;44.37;100577.85;105717;1280;22539;-85
2022/07/05 10:38:55;;;;;;;1.90;1.60;;;;;;;27.21;44.48;100582.16;105677;1275;24293;-83
2022/07/05 10:41:25;;;;;;;2.80;1.80;;;;;;;27.09;44.55;100584.72;106066;1275;22591;-85
2022/07/05 10:43:55;;;;;;;3.90;2.00;;;;;;;27.01;44.98;100582.02;105971;1274;23147;-85
2022/07/05 10:46:42;;;;;;;3.00;1.90;;;;;;;27.01;45.09;100581.54;106205;1274;22550;-82
2022/07/05 10:49:17;;;;;;;3.90;1.40;;;;;;;26.94;45.02;100585.61;106305;1274;25444;-82
2022/07/05 10:51:44;;;;;;;3.50;1.90;;;;;;;26.83;45.08;100584.63;106115;1274;22733;-84
2022/07/05 10:54:15;;;;;;;3.20;1.70;;;;;;;26.78;45.39;100586.08;106071;1274;25316;-82
2022/07/05 10:57:22;;;;;;;2.40;1.70;;;;;;;26.74;45.05;100586.72;106178;1275;22713;-84
2022/07/05 11:00:15;;;;;;;3.70;1.80;;;;;;;26.60;45.16;100580.02;106069;1274;24210;-83
2022/07/05 11:02:42;;;;;;;3.40;1.80;;;;;;;26.56;45.52;100582.86;106200;1273;22698;-85
2022/07/05 11:05:08;;;;;;;3.40;1.60;;;;;;;26.61;45.68;100583.71;106181;1273;22655;-84
2022/07/05 11:07:57;;;;;;;3.70;1.70;;;;;;;26.63;45.38;100580.52;106208;1274;22539;-82
2022/07/05 11:10:24;;;;;;;2.10;1.90;;;;;;;26.65;45.53;100579.27;106309;1273;23296;-83
2022/07/05 11:12:51;;;;;;;2.30;1.60;;;;;;;26.75;45.27;100580.91;106044;1275;24214;-83
2022/07/05 11:15:18;;;;;;;2.20;1.60;;;;;;;26.83;44.96;100575.05;106141;1275;24245;-82
2022/07/05 11:17:44;;;;;;;2.10;1.60;;;;;;;26.85;44.62;100577.42;105398;1281;22563;-84
2022/07/05 11:20:32;;;;;;;2.30;1.60;;;;;;;26.86;44.75;100576.50;105537;1281;22544;-84
2022/07/05 11:23:08;;;;;;;4.00;1.80;;;;;;;26.89;44.59;100571.02;105467;1284;22583;-82
2022/07/05 11:25:39;;;;;;;2.30;1.60;;;;;;;26.90;44.39;100564.94;105627;1281;22558;-84
2022/07/05 11:28:11;;;;;;;1.80;1.70;;;;;;;26.93;44.34;100567.61;105642;1281;22986;-84
2022/07/05 11:30:52;;;;;;;2.20;1.60;;;;;;;26.95;44.30;100563.85;106021;1281;25348;-84